Time;durP1;ratioP1;P1;durP2;ratioP2;P2;SDS_P1;SDS_P2;PMS_P1;PMS_P2;Temp;Humidity;BMP_temperature;BMP_pressure;BME280_temperature;BME280_humidity;BME280_pressure;Samples;Min_cycle;Max_cycle;Signal;HPM_P1;HPM_P2
2022/04/07 00:00:22;;;;;;;7.65;1.23;;;11.10;99.90;;;;;;5054383;28;20250;-78
2022/04/07 00:02:47;;;;;;;4.00;1.23;;;11.10;99.90;;;;;;5071273;28;20167;-78
2022/04/07 00:05:13;;;;;;;4.03;1.00;;;11.20;99.90;;;;;;5071812;28;20170;-79
2022/04/07 00:07:47;;;;;;;2.45;1.30;;;11.20;99.90;;;;;;5070299;28;20199;-77
2022/04/07 00:10:13;;;;;;;1.58;1.02;;;11.20;99.90;;;;;;5040345;28;20266;-78
2022/04/07 00:12:44;;;;;;;2.80;1.30;;;11.20;99.90;;;;;;5076225;28;20187;-80
2022/04/07 00:15:11;;;;;;;3.53;1.08;;;11.20;99.90;;;;;;5076794;28;20234;-78
2022/04/07 00:17:39;;;;;;;4.35;1.13;;;11.20;99.90;;;;;;5057885;28;20215;-78
2022/04/07 00:20:07;;;;;;;1.60;1.38;;;11.10;99.90;;;;;;5073168;28;20949;-78
2022/04/07 00:22:34;;;;;;;2.38;1.02;;;11.20;99.90;;;;;;5074644;28;20241;-78
2022/04/07 00:25:02;;;;;;;3.47;1.58;;;11.20;99.90;;;;;;5071347;28;20198;-78
2022/04/07 00:27:32;;;;;;;2.22;1.00;;;11.10;99.90;;;;;;5070421;28;20242;-79
2022/04/07 00:29:58;;;;;;;1.65;0.85;;;11.10;99.90;;;;;;5070201;28;20631;-78
2022/04/07 00:32:25;;;;;;;2.10;1.13;;;11.10;99.90;;;;;;5069678;28;20190;-80
2022/04/07 00:34:54;;;;;;;2.95;0.90;;;11.10;99.90;;;;;;5062384;28;20258;-83
2022/04/07 00:37:24;;;;;;;6.55;1.17;;;11.10;99.90;;;;;;5063471;28;20204;-79
2022/04/07 00:40:13;;;;;;;1.88;1.00;;;11.00;99.90;;;;;;5066613;28;20191;-82
2022/04/07 00:42:52;;;;;;;1.33;1.00;;;11.10;99.90;;;;;;5064159;28;20179;-78
2022/04/07 00:45:21;;;;;;;2.55;1.20;;;11.10;99.90;;;;;;5067795;28;20174;-81
2022/04/07 00:47:48;;;;;;;7.88;1.08;;;11.10;99.90;;;;;;5070259;28;20237;-81
2022/04/07 00:50:15;;;;;;;2.13;0.88;;;11.10;99.90;;;;;;5064080;28;20186;-80
2022/04/07 00:52:44;;;;;;;3.80;1.05;;;11.10;99.90;;;;;;5057257;28;20607;-85
2022/04/07 00:55:11;;;;;;;6.63;0.98;;;11.10;99.90;;;;;;5060784;28;20202;-80
2022/04/07 00:57:39;;;;;;;3.13;1.00;;;11.10;99.90;;;;;;5068578;28;20210;-82
2022/04/07 01:00:07;;;;;;;3.05;1.00;;;11.10;99.90;;;;;;5072604;28;20179;-80
2022/04/07 01:02:36;;;;;;;5.63;1.63;;;11.10;99.90;;;;;;5072962;28;20167;-80
2022/04/07 01:05:06;;;;;;;2.92;1.23;;;11.20;99.90;;;;;;5071955;28;20190;-82
2022/04/07 01:07:44;;;;;;;6.10;1.90;;;11.30;99.90;;;;;;5070218;28;20163;-79
2022/04/07 01:10:10;;;;;;;2.15;1.15;;;11.20;99.90;;;;;;5072398;28;20159;-80
2022/04/07 01:12:40;;;;;;;3.55;1.40;;;11.10;99.90;;;;;;5072309;28;20183;-80
2022/04/07 01:15:10;;;;;;;3.40;1.25;;;11.20;99.90;;;;;;5067693;28;20186;-80
2022/04/07 01:17:36;;;;;;;4.28;1.30;;;11.20;99.90;;;;;;5060825;28;20288;-79
2022/04/07 01:20:04;;;;;;;4.47;1.40;;;11.30;99.90;;;;;;5061435;28;20239;-80
2022/04/07 01:22:35;;;;;;;4.00;1.45;;;11.30;99.90;;;;;;5064893;28;20189;-79
2022/04/07 01:25:01;;;;;;;4.13;1.83;;;11.20;99.90;;;;;;5064169;28;20210;-79
2022/04/07 01:27:27;;;;;;;1.95;1.30;;;11.20;99.90;;;;;;5051794;28;20171;-80
2022/04/07 01:29:56;;;;;;;2.85;1.48;;;11.20;99.90;;;;;;5062044;28;20171;-80
2022/04/07 01:32:41;;;;;;;6.15;1.23;;;11.20;99.90;;;;;;5073317;28;20193;-80
2022/04/07 01:35:09;;;;;;;4.18;1.92;;;11.20;99.90;;;;;;5068569;28;20167;-86
2022/04/07 01:37:37;;;;;;;1.23;1.13;;;11.10;99.90;;;;;;5052792;28;20336;-79
2022/04/07 01:40:04;;;;;;;4.45;1.30;;;11.30;99.90;;;;;;5061831;28;20147;-80
2022/04/07 01:42:34;;;;;;;3.13;1.20;;;11.20;99.90;;;;;;5070399;28;20163;-80
2022/04/07 01:45:02;;;;;;;2.63;1.90;;;11.20;99.90;;;;;;5066961;28;20159;-80
2022/04/07 01:47:34;;;;;;;6.07;1.70;;;11.20;99.90;;;;;;5058320;28;20191;-80
2022/04/07 01:50:09;;;;;;;4.30;1.70;;;11.00;99.90;;;;;;5074644;28;20175;-80
2022/04/07 01:52:37;;;;;;;7.10;1.27;;;11.00;99.90;;;;;;5067971;28;20250;-78
2022/04/07 01:55:04;;;;;;;3.50;1.50;;;11.10;99.90;;;;;;5068666;28;20151;-79
2022/04/07 01:57:32;;;;;;;7.13;1.80;;;11.00;99.90;;;;;;5074027;28;20209;-78
2022/04/07 02:00:00;;;;;;;6.32;1.58;;;10.90;99.90;;;;;;5072331;28;20205;-80
2022/04/07 02:02:26;;;;;;;5.00;2.10;;;10.90;99.90;;;;;;5070369;28;20182;-79
2022/04/07 02:04:55;;;;;;;4.90;1.27;;;10.90;99.90;;;;;;5068077;28;20172;-77
2022/04/07 02:07:21;;;;;;;2.35;1.10;;;10.90;99.90;;;;;;5070325;28;20251;-84
2022/04/07 02:09:46;;;;;;;5.10;1.40;;;10.90;99.90;;;;;;5073542;28;20167;-80
2022/04/07 02:12:20;;;;;;;8.45;1.60;;;10.90;99.90;;;;;;5056497;28;20266;-77
2022/04/07 02:14:50;;;;;;;5.45;1.30;;;10.90;99.90;;;;;;5072277;28;20163;-83
2022/04/07 02:17:27;;;;;;;4.32;1.45;;;10.90;99.90;;;;;;5069703;28;20207;-78
2022/04/07 02:20:03;;;;;;;6.60;1.60;;;10.80;99.90;;;;;;5061063;28;20178;-82
2022/04/07 02:22:30;;;;;;;6.32;1.50;;;10.80;99.90;;;;;;5064476;28;20240;-79
2022/04/07 02:25:04;;;;;;;7.30;1.58;;;10.80;99.90;;;;;;5061743;28;20163;-80
2022/04/07 02:27:41;;;;;;;3.78;1.38;;;10.80;99.90;;;;;;5077375;28;20173;-77
2022/04/07 02:30:11;;;;;;;4.30;1.40;;;10.90;99.90;;;;;;5077342;28;20159;-78
2022/04/07 02:32:38;;;;;;;4.82;1.20;;;10.90;99.90;;;;;;5060480;28;20159;-80
2022/04/07 02:35:05;;;;;;;5.03;1.33;;;10.90;99.90;;;;;;5077117;28;20179;-78
2022/04/07 02:37:31;;;;;;;5.75;1.02;;;10.90;99.90;;;;;;5068656;28;20223;-78
2022/04/07 02:39:57;;;;;;;2.35;1.30;;;10.90;99.90;;;;;;5070573;28;20159;-78
2022/04/07 02:42:26;;;;;;;1.85;1.20;;;11.10;99.90;;;;;;5070793;28;20176;-78
2022/04/07 02:44:52;;;;;;;5.53;1.40;;;11.00;99.90;;;;;;5042976;28;20532;-85
2022/04/07 02:47:17;;;;;;;1.48;1.25;;;10.90;99.90;;;;;;5068819;28;20262;-79
2022/04/07 02:49:45;;;;;;;2.30;1.35;;;11.00;99.90;;;;;;5069194;28;20240;-80
2022/04/07 02:52:11;;;;;;;6.47;1.38;;;11.10;99.90;;;;;;5069184;28;20228;-80
2022/04/07 02:54:40;;;;;;;6.80;1.17;;;11.10;99.90;;;;;;5066282;28;20164;-79
2022/04/07 02:57:24;;;;;;;3.83;1.65;;;11.10;99.90;;;;;;5068368;28;20215;-79
2022/04/07 02:59:51;;;;;;;3.00;1.42;;;11.20;99.90;;;;;;5059552;28;20151;-78
2022/04/07 03:02:16;;;;;;;9.55;1.40;;;11.20;99.90;;;;;;5056374;28;20624;-80
2022/04/07 03:04:42;;;;;;;4.53;1.30;;;11.10;99.90;;;;;;5059643;28;20234;-78
2022/04/07 03:07:07;;;;;;;1.70;1.20;;;11.10;99.90;;;;;;5067169;28;20171;-79
2022/04/07 03:09:33;;;;;;;3.13;1.50;;;11.10;99.90;;;;;;5055200;28;20206;-79
2022/04/07 03:11:59;;;;;;;1.45;1.10;;;11.10;99.90;;;;;;5063450;28;20167;-84
2022/04/07 03:14:27;;;;;;;3.03;1.33;;;11.10;99.90;;;;;;5056053;28;20163;-78
2022/04/07 03:16:53;;;;;;;1.20;0.90;;;11.10;99.90;;;;;;5055679;28;20210;-78
2022/04/07 03:19:19;;;;;;;2.20;1.13;;;11.00;99.90;;;;;;5055019;28;20262;-79
2022/04/07 03:21:45;;;;;;;0.85;0.82;;;11.10;99.90;;;;;;5058107;28;20628;-80
2022/04/07 03:24:11;;;;;;;3.83;0.95;;;11.10;99.90;;;;;;5055292;28;20167;-83
2022/04/07 03:26:40;;;;;;;4.90;1.20;;;11.00;99.90;;;;;;5055148;28;20241;-83
2022/04/07 03:29:06;;;;;;;3.25;1.30;;;11.00;99.90;;;;;;5054328;28;20663;-85
2022/04/07 03:31:31;;;;;;;1.50;0.93;;;11.10;99.90;;;;;;5054748;28;20180;-80
2022/04/07 03:33:57;;;;;;;1.40;1.02;;;11.10;99.90;;;;;;5068619;28;20174;-79
2022/04/07 03:36:24;;;;;;;1.27;0.80;;;11.10;99.90;;;;;;5066258;28;20237;-78
2022/04/07 03:38:53;;;;;;;2.28;0.85;;;11.00;99.90;;;;;;5065789;28;20183;-78
2022/04/07 03:41:20;;;;;;;1.73;0.98;;;10.80;99.90;;;;;;5064378;28;20620;-79
2022/04/07 03:43:46;;;;;;;4.95;1.02;;;10.80;99.90;;;;;;5056034;28;20175;-83
2022/04/07 03:46:16;;;;;;;3.20;1.33;;;10.80;99.90;;;;;;5054718;28;20217;-79
2022/04/07 03:48:41;;;;;;;1.75;0.77;;;10.80;99.90;;;;;;5055096;28;20194;-79
2022/04/07 03:51:07;;;;;;;1.83;0.95;;;10.80;99.90;;;;;;5052723;28;20183;-79
2022/04/07 03:53:32;;;;;;;1.83;0.90;;;10.70;99.90;;;;;;5053044;28;20167;-84
2022/04/07 03:55:58;;;;;;;1.75;0.88;;;10.70;99.90;;;;;;5054554;28;20529;-80
2022/04/07 03:58:25;;;;;;;0.70;0.70;;;10.60;99.90;;;;;;5054095;28;20195;-79
2022/04/07 04:00:50;;;;;;;2.63;0.73;;;10.60;99.90;;;;;;5054237;28;20185;-84
2022/04/07 04:03:17;;;;;;;2.00;0.80;;;10.50;99.90;;;;;;5053227;28;20237;-80
2022/04/07 04:05:43;;;;;;;0.85;0.80;;;10.60;99.90;;;;;;5054043;28;20191;-80
2022/04/07 04:08:08;;;;;;;1.75;0.80;;;10.60;99.90;;;;;;5053790;28;20187;-83
2022/04/07 04:10:34;;;;;;;2.45;1.30;;;10.60;99.90;;;;;;5054042;28;21228;-79
2022/04/07 04:12:59;;;;;;;2.28;1.27;;;10.60;99.90;;;;;;5052839;28;20206;-78
2022/04/07 04:15:25;;;;;;;2.30;1.70;;;10.60;99.90;;;;;;5054036;28;20612;-79
2022/04/07 04:17:50;;;;;;;2.95;1.40;;;10.70;99.90;;;;;;5054242;28;20215;-78
2022/04/07 04:20:16;;;;;;;4.03;1.30;;;10.70;99.90;;;;;;5054627;28;20183;-80
2022/04/07 04:22:41;;;;;;;6.07;1.80;;;10.70;99.90;;;;;;5054267;28;20512;-79
2022/04/07 04:25:08;;;;;;;1.90;1.10;;;10.70;99.90;;;;;;5054319;28;20174;-79
2022/04/07 04:27:34;;;;;;;2.05;1.50;;;10.70;99.90;;;;;;5053842;28;20284;-78
2022/04/07 04:29:59;;;;;;;5.47;1.75;;;10.70;99.90;;;;;;5053916;28;20167;-78
2022/04/07 04:32:25;;;;;;;3.95;1.50;;;10.70;99.90;;;;;;5053999;28;20163;-79
2022/04/07 04:34:51;;;;;;;5.82;1.50;;;10.80;99.90;;;;;;5054198;28;20181;-78
2022/04/07 04:37:16;;;;;;;3.13;1.65;;;10.70;99.90;;;;;;5054888;28;20207;-79
2022/04/07 04:39:42;;;;;;;2.33;1.33;;;10.70;99.90;;;;;;5065515;28;20183;-81
2022/04/07 04:42:09;;;;;;;4.32;1.45;;;10.70;99.90;;;;;;5068974;28;20262;-79
2022/04/07 04:44:34;;;;;;;4.15;1.30;;;10.80;99.90;;;;;;5069009;28;20163;-82
2022/04/07 04:47:00;;;;;;;3.53;1.63;;;10.80;99.90;;;;;;5068749;28;20656;-77
2022/04/07 04:49:26;;;;;;;3.80;1.40;;;10.80;99.90;;;;;;5054304;28;20598;-79
2022/04/07 04:51:51;;;;;;;1.98;1.15;;;10.70;99.90;;;;;;5054309;28;20177;-79
2022/04/07 04:54:17;;;;;;;7.70;1.48;;;10.60;99.90;;;;;;5053333;28;20186;-77
2022/04/07 04:56:42;;;;;;;2.28;1.10;;;10.60;99.90;;;;;;5053272;28;20667;-78
2022/04/07 04:59:08;;;;;;;2.45;1.20;;;10.60;99.90;;;;;;5053251;28;20195;-84
2022/04/07 05:01:34;;;;;;;4.90;1.33;;;10.70;99.90;;;;;;5052983;28;20221;-78
2022/04/07 05:03:59;;;;;;;4.32;1.60;;;10.70;99.90;;;;;;5053062;28;20528;-83
2022/04/07 05:06:25;;;;;;;3.85;1.50;;;10.80;99.90;;;;;;5052925;28;20167;-79
2022/04/07 05:08:51;;;;;;;6.93;1.27;;;10.80;99.90;;;;;;5052602;28;20197;-80
2022/04/07 05:11:16;;;;;;;5.88;1.20;;;10.90;99.90;;;;;;5053570;28;20201;-79
2022/04/07 05:13:42;;;;;;;8.02;1.25;;;10.80;99.90;;;;;;5052901;28;20240;-78
2022/04/07 05:16:08;;;;;;;5.65;1.42;;;10.70;99.90;;;;;;5052995;28;20174;-78
2022/04/07 05:18:34;;;;;;;1.75;1.00;;;10.70;99.90;;;;;;5051505;28;20191;-80
2022/04/07 05:21:00;;;;;;;5.40;1.15;;;10.70;99.90;;;;;;5052654;28;20251;-79
2022/04/07 05:23:26;;;;;;;6.38;1.17;;;10.70;99.90;;;;;;5052869;28;20203;-81
2022/04/07 05:25:52;;;;;;;7.53;1.05;;;10.70;99.90;;;;;;5052787;28;20163;-80
2022/04/07 05:28:18;;;;;;;2.95;1.00;;;10.70;99.90;;;;;;5052640;28;20217;-79
2022/04/07 05:30:44;;;;;;;3.45;0.73;;;10.80;99.90;;;;;;5053122;28;20540;-83
2022/04/07 05:33:10;;;;;;;0.98;0.77;;;10.80;99.90;;;;;;5052871;28;20164;-80
2022/04/07 05:35:36;;;;;;;9.48;1.00;;;10.80;99.90;;;;;;5052746;28;20182;-79
2022/04/07 05:38:03;;;;;;;3.53;0.80;;;10.80;99.90;;;;;;5052808;28;20207;-81
2022/04/07 05:40:29;;;;;;;5.40;1.17;;;10.80;99.90;;;;;;5051946;28;20262;-78
2022/04/07 05:42:56;;;;;;;4.60;1.17;;;10.90;99.90;;;;;;5052712;28;20182;-82
2022/04/07 05:45:22;;;;;;;2.78;0.82;;;10.90;99.90;;;;;;5052463;28;20197;-80
2022/04/07 05:47:48;;;;;;;5.45;0.95;;;10.90;99.90;;;;;;5052626;28;20241;-80
2022/04/07 05:50:13;;;;;;;6.28;0.90;;;11.00;99.90;;;;;;5052243;28;20171;-78
2022/04/07 05:52:39;;;;;;;6.70;1.17;;;11.00;99.90;;;;;;5066993;28;20226;-85
2022/04/07 05:55:06;;;;;;;4.05;0.95;;;10.90;99.90;;;;;;5062681;28;20520;-78
2022/04/07 05:57:31;;;;;;;7.53;1.25;;;11.00;99.90;;;;;;5058314;28;20198;-78
2022/04/07 06:00:05;;;;;;;5.68;1.65;;;11.10;99.90;;;;;;5056152;28;20620;-78
2022/04/07 06:02:31;;;;;;;8.88;1.27;;;11.00;99.90;;;;;;5056418;28;20171;-79
2022/04/07 06:04:57;;;;;;;3.20;1.10;;;11.00;99.90;;;;;;5056123;28;20644;-79
2022/04/07 06:07:23;;;;;;;8.60;1.88;;;11.00;99.90;;;;;;5055126;28;20178;-79
2022/04/07 06:09:48;;;;;;;4.60;1.70;;;11.10;99.90;;;;;;5055851;28;20171;-78
2022/04/07 06:12:14;;;;;;;19.63;2.40;;;11.10;99.90;;;;;;5056281;28;20270;-78
2022/04/07 06:14:39;;;;;;;6.78;1.40;;;11.00;99.90;;;;;;5054724;28;20170;-80
2022/04/07 06:17:05;;;;;;;4.57;1.27;;;11.00;99.90;;;;;;5056402;28;20206;-78
2022/04/07 06:19:31;;;;;;;4.53;1.70;;;11.00;99.90;;;;;;5056134;28;20600;-79
2022/04/07 06:21:56;;;;;;;2.58;1.13;;;10.90;99.90;;;;;;5055872;28;20164;-82
2022/04/07 06:24:22;;;;;;;8.15;1.75;;;10.90;99.90;;;;;;5055786;28;20163;-79
2022/04/07 06:26:49;;;;;;;4.05;1.58;;;11.00;99.90;;;;;;5056405;28;20604;-79
2022/04/07 06:29:15;;;;;;;4.82;1.27;;;11.00;99.90;;;;;;5055924;28;20652;-81
2022/04/07 06:31:40;;;;;;;5.57;1.23;;;11.10;99.90;;;;;;5055087;28;20171;-79
2022/04/07 06:34:06;;;;;;;4.18;1.33;;;11.10;99.90;;;;;;5060209;28;20155;-80
2022/04/07 06:36:31;;;;;;;0.52;0.52;;;11.10;99.90;;;;;;5056096;28;20229;-79
2022/04/07 06:38:57;;;;;;;2.05;1.05;;;11.10;99.90;;;;;;5056340;28;20604;-82
2022/04/07 06:41:24;;;;;;;3.70;1.30;;;11.20;99.90;;;;;;5056704;28;20178;-84
2022/04/07 06:43:49;;;;;;;1.52;0.90;;;11.20;99.90;;;;;;5056428;28;20167;-81
2022/04/07 06:46:15;;;;;;;0.90;0.77;;;11.20;99.90;;;;;;5055573;28;20163;-80
2022/04/07 06:48:42;;;;;;;4.68;1.15;;;11.20;99.90;;;;;;5055741;28;20183;-81
2022/04/07 06:51:09;;;;;;;1.85;0.90;;;11.20;99.90;;;;;;5055208;28;20237;-85
2022/04/07 06:53:35;;;;;;;2.35;0.95;;;11.20;99.90;;;;;;5055967;28;20160;-80
2022/04/07 06:56:01;;;;;;;1.67;0.90;;;11.20;99.90;;;;;;5060762;28;20193;-79
2022/04/07 06:58:26;;;;;;;6.15;1.55;;;11.20;99.90;;;;;;5054962;28;20195;-78
2022/04/07 07:00:52;;;;;;;1.40;0.80;;;11.20;99.90;;;;;;5056553;28;20168;-81
2022/04/07 07:03:18;;;;;;;3.55;1.00;;;11.30;99.90;;;;;;5056647;28;20186;-81
2022/04/07 07:05:43;;;;;;;0.93;0.70;;;11.30;99.90;;;;;;5054757;28;20674;-80
2022/04/07 07:08:09;;;;;;;1.23;0.63;;;11.40;99.90;;;;;;5056238;28;20193;-82
2022/04/07 07:10:35;;;;;;;2.05;0.98;;;11.40;99.90;;;;;;5056828;28;20167;-79
2022/04/07 07:13:00;;;;;;;3.80;0.68;;;11.30;99.90;;;;;;5054680;28;20282;-79
2022/04/07 07:15:26;;;;;;;3.13;0.77;;;11.20;99.90;;;;;;5055777;28;20624;-80
2022/04/07 07:17:52;;;;;;;0.93;0.50;;;11.30;99.90;;;;;;5055242;28;20210;-82
2022/04/07 07:20:18;;;;;;;3.95;0.80;;;11.30;99.90;;;;;;5056466;28;20198;-79
2022/04/07 07:22:44;;;;;;;1.15;0.75;;;11.30;99.90;;;;;;5056757;28;20254;-81
2022/04/07 07:25:10;;;;;;;1.42;0.95;;;11.30;99.90;;;;;;5055727;28;20210;-82
2022/04/07 07:27:47;;;;;;;2.38;0.70;;;11.30;99.90;;;;;;5055201;28;20175;-83
2022/04/07 07:30:15;;;;;;;1.10;0.70;;;11.30;99.90;;;;;;5056947;28;20232;-82
2022/04/07 07:32:45;;;;;;;1.08;0.75;;;11.20;99.90;;;;;;5057031;28;20167;-84
2022/04/07 07:35:11;;;;;;;2.88;0.90;;;11.30;99.90;;;;;;5055511;28;20163;-81
2022/04/07 07:37:46;;;;;;;0.80;0.80;;;11.40;99.90;;;;;;5056324;28;20206;-79
2022/04/07 07:40:12;;;;;;;4.03;1.17;;;11.30;99.90;;;;;;5056678;28;20159;-83
2022/04/07 07:42:38;;;;;;;1.33;0.85;;;11.40;99.90;;;;;;5056205;28;20182;-81
2022/04/07 07:45:06;;;;;;;0.98;0.80;;;11.50;99.90;;;;;;5056030;28;20525;-81
2022/04/07 07:47:32;;;;;;;4.78;0.80;;;11.50;99.90;;;;;;5054511;28;20296;-79
2022/04/07 07:49:58;;;;;;;1.40;0.77;;;11.50;99.90;;;;;;5054509;28;20168;-79
2022/04/07 07:52:23;;;;;;;1.00;0.77;;;11.60;99.90;;;;;;5054939;28;20189;-79
2022/04/07 07:54:49;;;;;;;0.50;0.50;;;11.70;99.90;;;;;;5053668;28;20537;-84
2022/04/07 07:57:15;;;;;;;0.57;0.57;;;11.60;99.90;;;;;;5053001;28;20234;-81
2022/04/07 07:59:40;;;;;;;0.80;0.80;;;11.60;99.90;;;;;;5055654;28;20186;-81
2022/04/07 08:02:06;;;;;;;1.17;0.80;;;11.60;99.90;;;;;;5055372;28;20178;-80
2022/04/07 08:04:32;;;;;;;1.92;1.02;;;11.60;99.90;;;;;;5052928;28;20167;-79
2022/04/07 08:06:58;;;;;;;4.43;0.82;;;11.60;99.90;;;;;;5054150;28;20513;-79
2022/04/07 08:09:24;;;;;;;2.05;0.90;;;11.60;99.90;;;;;;5054130;28;20605;-79
2022/04/07 08:11:49;;;;;;;1.75;0.90;;;11.60;99.90;;;;;;5054566;28;20269;-83
2022/04/07 08:14:15;;;;;;;1.70;1.35;;;11.50;99.90;;;;;;5054050;28;20190;-79
2022/04/07 08:16:41;;;;;;;0.82;0.80;;;11.50;99.90;;;;;;5052530;28;20214;-78
2022/04/07 08:19:09;;;;;;;1.40;1.30;;;11.50;99.90;;;;;;5053979;28;20207;-79
2022/04/07 08:21:34;;;;;;;1.30;1.02;;;11.50;99.90;;;;;;5054068;28;20679;-80
2022/04/07 08:24:00;;;;;;;1.73;1.63;;;11.50;99.90;;;;;;5054152;28;20171;-80
2022/04/07 08:26:26;;;;;;;0.98;0.93;;;11.60;99.90;;;;;;5059875;28;20175;-79
2022/04/07 08:28:52;;;;;;;5.18;1.13;;;11.70;99.90;;;;;;5064409;28;20194;-79
2022/04/07 08:31:17;;;;;;;1.20;0.80;;;11.70;99.90;;;;;;5075919;28;20171;-78
2022/04/07 08:33:43;;;;;;;1.67;1.00;;;11.60;99.90;;;;;;5059982;28;20580;-80
2022/04/07 08:36:08;;;;;;;0.60;0.60;;;11.60;99.90;;;;;;5054234;28;20170;-83
2022/04/07 08:38:34;;;;;;;2.20;0.73;;;11.60;99.90;;;;;;5049100;28;20695;-82
2022/04/07 08:41:00;;;;;;;1.10;0.90;;;11.40;99.90;;;;;;5052634;28;20167;-83
2022/04/07 08:43:26;;;;;;;0.90;0.80;;;11.50;99.90;;;;;;5053697;28;20163;-82
2022/04/07 08:45:52;;;;;;;1.88;1.23;;;11.40;99.90;;;;;;5053179;28;20223;-80
2022/04/07 08:48:17;;;;;;;1.48;0.55;;;11.50;99.90;;;;;;5052598;28;20248;-84
2022/04/07 08:50:45;;;;;;;1.20;0.73;;;11.60;99.90;;;;;;5053234;28;20643;-80
2022/04/07 08:53:12;;;;;;;0.60;0.60;;;11.70;99.90;;;;;;5051566;28;20181;-80
2022/04/07 08:55:38;;;;;;;7.10;0.88;;;11.80;99.90;;;;;;5053173;28;20224;-81
2022/04/07 08:58:04;;;;;;;2.22;0.70;;;12.10;99.90;;;;;;5053374;28;20206;-84
2022/04/07 09:00:30;;;;;;;1.25;0.65;;;12.20;99.90;;;;;;5056751;28;20568;-84
2022/04/07 09:02:56;;;;;;;0.93;0.85;;;12.10;99.90;;;;;;5052808;28;20193;-83
2022/04/07 09:05:26;;;;;;;0.98;0.57;;;12.10;99.90;;;;;;5051561;28;20227;-83
2022/04/07 09:07:54;;;;;;;0.98;0.60;;;12.10;99.90;;;;;;5066051;28;20182;-80
2022/04/07 09:10:22;;;;;;;0.50;0.50;;;12.20;99.90;;;;;;5069388;28;20159;-81
2022/04/07 09:12:48;;;;;;;0.65;0.65;;;12.40;99.90;;;;;;5070188;28;20167;-81
2022/04/07 09:15:14;;;;;;;5.32;0.95;;;12.30;99.90;;;;;;5071526;28;20201;-81
2022/04/07 09:17:55;;;;;;;0.70;0.47;;;12.30;99.90;;;;;;5068600;28;20274;-81
2022/04/07 09:20:21;;;;;;;1.65;1.35;;;12.20;99.90;;;;;;5058297;28;20612;-79
2022/04/07 09:22:58;;;;;;;1.70;1.60;;;12.40;99.90;;;;;;5053302;28;20202;-79
2022/04/07 09:25:27;;;;;;;1.20;1.10;;;12.50;99.90;;;;;;5051456;28;20173;-78
2022/04/07 09:27:57;;;;;;;1.75;0.90;;;12.50;99.90;;;;;;5051594;28;20187;-80
2022/04/07 09:30:23;;;;;;;1.90;1.48;;;12.60;99.90;;;;;;5052593;28;20170;-79
2022/04/07 09:32:49;;;;;;;3.33;0.95;;;12.70;99.90;;;;;;5053537;28;20223;-80
2022/04/07 09:35:15;;;;;;;2.22;0.77;;;12.70;99.90;;;;;;5052069;28;20167;-81
2022/04/07 09:37:42;;;;;;;5.55;0.85;;;12.50;99.90;;;;;;5053113;28;20194;-84
2022/04/07 09:40:14;;;;;;;5.53;0.85;;;12.60;99.90;;;;;;5051380;28;20182;-82
2022/04/07 09:42:41;;;;;;;2.72;1.10;;;12.40;99.90;;;;;;5052723;28;20265;-79
2022/04/07 09:45:11;;;;;;;4.28;0.70;;;12.30;99.90;;;;;;5052522;28;20160;-78
2022/04/07 09:47:44;;;;;;;1.58;0.60;;;12.30;99.90;;;;;;5051476;28;20210;-79
2022/04/07 09:50:32;;;;;;;6.45;0.55;;;12.40;99.90;;;;;;5052779;28;20165;-83
2022/04/07 09:52:59;;;;;;;4.20;0.95;;;12.60;99.90;;;;;;5052829;28;20254;-79
2022/04/07 09:55:37;;;;;;;5.82;1.00;;;12.60;99.90;;;;;;5052226;28;20175;-79
2022/04/07 09:58:04;;;;;;;2.97;0.40;;;12.70;99.90;;;;;;5051233;28;20540;-80
2022/04/07 10:00:30;;;;;;;1.67;0.70;;;12.70;99.90;;;;;;5052603;28;20305;-78
2022/04/07 10:02:57;;;;;;;5.18;1.13;;;12.70;99.90;;;;;;5052603;28;20171;-81
2022/04/07 10:05:23;;;;;;;3.80;1.10;;;12.80;99.90;;;;;;5052424;28;20174;-79
2022/04/07 10:07:50;;;;;;;4.57;0.95;;;12.80;99.90;;;;;;5052638;28;20183;-79
2022/04/07 10:10:19;;;;;;;3.05;1.10;;;12.80;99.90;;;;;;5051913;28;20167;-80
2022/04/07 10:12:46;;;;;;;3.40;0.70;;;12.90;99.90;;;;;;5035498;28;20237;-78
2022/04/07 10:15:11;;;;;;;3.08;1.05;;;12.80;99.90;;;;;;5052782;28;20237;-82
2022/04/07 10:17:38;;;;;;;3.42;1.00;;;12.80;99.90;;;;;;5052067;28;20671;-81
2022/04/07 10:20:11;;;;;;;4.60;0.80;;;12.90;99.90;;;;;;5056916;28;20164;-81
2022/04/07 10:23:03;;;;;;;5.30;2.65;;;13.00;99.90;;;;;;5064772;28;20170;-79
2022/04/07 10:25:31;;;;;;;11.25;1.63;;;13.10;99.90;;;;;;5063869;28;20164;-79
2022/04/07 10:28:02;;;;;;;10.23;0.95;;;13.10;99.90;;;;;;5060853;28;20205;-80
2022/04/07 10:30:32;;;;;;;7.28;0.80;;;13.20;99.90;;;;;;5061326;28;20168;-78
2022/04/07 10:32:58;;;;;;;2.67;1.10;;;13.40;99.90;;;;;;5061916;28;20250;-78
2022/04/07 10:35:30;;;;;;;10.10;1.40;;;13.50;99.90;;;;;;5063103;28;20191;-79
2022/04/07 10:38:00;;;;;;;2.20;1.02;;;13.80;99.90;;;;;;5058620;28;20219;-79
2022/04/07 10:40:56;;;;;;;8.20;1.67;;;13.70;99.90;;;;;;5055399;28;20209;-79
2022/04/07 10:43:25;;;;;;;2.88;0.98;;;13.50;99.90;;;;;;5056442;28;20167;-81
2022/04/07 10:46:05;;;;;;;8.80;1.08;;;13.70;99.90;;;;;;5056461;28;20156;-79
2022/04/07 10:48:35;;;;;;;5.95;0.98;;;13.80;99.90;;;;;;5058987;28;20187;-81
2022/04/07 10:51:10;;;;;;;1.75;1.08;;;13.90;99.90;;;;;;5054522;28;20167;-79
2022/04/07 10:54:02;;;;;;;3.08;0.85;;;13.90;99.90;;;;;;5054375;28;20528;-79
2022/04/07 10:56:39;;;;;;;5.03;1.10;;;14.20;99.90;;;;;;5056011;28;20194;-79
2022/04/07 10:59:10;;;;;;;9.40;1.52;;;14.40;99.90;;;;;;5064811;28;20244;-79
2022/04/07 11:01:39;;;;;;;5.80;1.00;;;14.20;99.90;;;;;;5063198;28;20176;-80
2022/04/07 11:04:23;;;;;;;8.10;1.17;;;14.40;99.90;;;;;;5072941;28;20203;-79
2022/04/07 11:07:07;;;;;;;8.77;0.93;;;14.50;99.90;;;;;;5071978;28;20635;-80
2022/04/07 11:09:55;;;;;;;4.35;1.27;;;14.50;99.90;;;;;;5054743;28;20566;-79
2022/04/07 11:12:24;;;;;;;2.53;1.00;;;14.20;99.90;;;;;;5055044;28;20194;-79
2022/04/07 11:14:53;;;;;;;5.63;1.17;;;14.20;99.90;;;;;;5054532;28;20198;-82
2022/04/07 11:17:28;;;;;;;6.18;1.42;;;14.10;99.90;;;;;;5054953;28;21043;-83
2022/04/07 11:20:03;;;;;;;11.00;3.35;;;14.20;99.90;;;;;;5053711;28;20166;-80
2022/04/07 11:22:45;;;;;;;4.68;1.60;;;14.30;99.90;;;;;;5055527;28;20174;-83
2022/04/07 11:25:12;;;;;;;7.10;0.95;;;14.50;99.90;;;;;;5054817;28;20195;-82
2022/04/07 11:27:43;;;;;;;11.43;1.60;;;14.40;99.90;;;;;;5054910;28;20159;-78
2022/04/07 11:30:13;;;;;;;7.38;1.20;;;14.20;99.90;;;;;;5054479;28;20244;-81
2022/04/07 11:33:11;;;;;;;10.88;2.03;;;14.10;99.90;;;;;;5055011;28;20167;-79
2022/04/07 11:35:37;;;;;;;3.38;0.75;;;13.80;99.90;;;;;;5055024;28;20221;-78
2022/04/07 11:38:02;;;;;;;6.75;1.25;;;13.70;99.90;;;;;;5054593;28;20567;-79
2022/04/07 11:40:28;;;;;;;3.90;1.20;;;13.90;99.90;;;;;;5054869;28;20163;-78
2022/04/07 11:42:54;;;;;;;7.15;1.30;;;13.90;99.90;;;;;;5054525;28;20590;-80
2022/04/07 11:45:19;;;;;;;5.03;1.30;;;13.80;99.90;;;;;;5054825;28;20175;-78
2022/04/07 11:47:49;;;;;;;4.72;1.15;;;13.70;99.90;;;;;;5054582;28;20277;-80
2022/04/07 11:50:14;;;;;;;6.25;1.45;;;13.70;99.90;;;;;;5054561;28;20159;-84
2022/04/07 11:52:40;;;;;;;4.97;1.67;;;13.60;99.90;;;;;;5054520;28;20182;-79
2022/04/07 11:55:06;;;;;;;12.88;1.40;;;13.40;99.90;;;;;;5054693;28;20624;-79
2022/04/07 11:57:32;;;;;;;8.02;1.00;;;13.40;99.90;;;;;;5054197;28;20296;-78
2022/04/07 12:00:04;;;;;;;12.50;1.42;;;13.50;99.90;;;;;;5052950;28;20171;-82
2022/04/07 12:02:29;;;;;;;6.20;3.15;;;13.70;99.90;;;;;;5054412;28;20182;-78
2022/04/07 12:05:03;;;;;;;9.65;3.03;;;13.70;99.90;;;;;;5054173;28;20168;-83
2022/04/07 12:07:30;;;;;;;15.43;1.58;;;13.70;99.90;;;;;;5060672;28;20175;-79
2022/04/07 12:10:04;;;;;;;13.48;3.17;;;13.70;99.90;;;;;;5054214;28;20956;-78
2022/04/07 12:12:30;;;;;;;11.88;4.55;;;13.70;99.90;;;;;;5054601;28;20237;-79
2022/04/07 12:14:56;;;;;;;6.90;1.75;;;13.80;99.90;;;;;;5055984;28;20171;-83
2022/04/07 12:17:22;;;;;;;8.48;1.45;;;14.10;99.90;;;;;;5059468;28;20715;-78
2022/04/07 12:19:49;;;;;;;9.35;1.88;;;14.20;99.90;;;;;;5054322;28;20191;-82
2022/04/07 12:22:16;;;;;;;8.02;1.80;;;14.30;99.90;;;;;;5055770;28;20167;-84
2022/04/07 12:24:59;;;;;;;8.52;2.10;;;14.30;99.90;;;;;;5056175;28;20178;-88
2022/04/07 12:27:30;;;;;;;9.82;1.63;;;14.40;99.90;;;;;;5054348;28;20210;-81
2022/04/07 12:29:57;;;;;;;8.85;1.35;;;14.50;99.90;;;;;;5054419;28;20185;-85
2022/04/07 12:32:23;;;;;;;10.90;2.17;;;14.60;99.90;;;;;;5054123;28;20167;-86
2022/04/07 12:34:56;;;;;;;13.70;1.60;;;14.40;99.90;;;;;;5056508;28;20147;-86
2022/04/07 12:37:39;;;;;;;15.80;2.50;;;14.40;99.90;;;;;;5054278;28;20708;-85
2022/04/07 12:40:15;;;;;;;11.75;2.58;;;14.40;99.90;;;;;;5053345;28;20578;-78
2022/04/07 12:42:59;;;;;;;5.95;2.00;;;14.30;99.90;;;;;;5055371;28;20163;-83
2022/04/07 12:45:25;;;;;;;12.77;2.20;;;14.50;99.90;;;;;;5054309;28;20620;-79
2022/04/07 12:48:05;;;;;;;14.57;2.20;;;14.40;99.90;;;;;;5053260;28;20195;-88
2022/04/07 12:50:33;;;;;;;6.97;1.50;;;14.30;99.90;;;;;;5053915;28;20179;-93